Moody AFB, Georgia
Current Conditions -  °F | °C
As of 7:58 PM on Thursday 18 Dec 2014 (Local Time) from KVAD Reporting Station
Clear Clear  
Wind Chill: 49°   Ceiling: Unl
Heat Index: 49°   Visibility: 10mi
Dew Point: 41°   Wind: 1mph
Humidity: 74%   Direction: 130°SE
Pressure: 30.11"   Gusts: NA
Location:  30.9753°N, 83.2042°W
Report Text: KVAD 190058Z AUTO 13001KT 10SM CLR 10/05 A3011 RMK AO2 SLP199 T00970052 $
Loading
Personal Weather Stations






























Interactive Weather Map New forecast layout! Learn more

10-Day Weather Forecast

Advertisements
Track Severe Weather on mobile